sensor_id;sensor_type;location;lat;lon;timestamp;P1;durP1;ratioP1;P2;durP2;ratioP2
79518;SDS011;68968;60.034;30.654;2023-04-24T17:05:33;13.52;;;7.82;;
79518;SDS011;68968;60.034;30.654;2023-04-24T17:08:00;11.88;;;7.40;;
79518;SDS011;68968;60.034;30.654;2023-04-24T17:10:26;11.30;;;7.30;;
79518;SDS011;68968;60.034;30.654;2023-04-24T17:12:53;9.65;;;7.07;;
79518;SDS011;68968;60.034;30.654;2023-04-24T17:15:19;11.95;;;7.20;;
79518;SDS011;68968;60.034;30.654;2023-04-24T17:17:44;13.23;;;6.80;;
79518;SDS011;68968;60.034;30.654;2023-04-24T17:20:11;11.60;;;7.57;;
79518;SDS011;68968;60.034;30.654;2023-04-24T17:22:37;12.93;;;7.63;;
79518;SDS011;68968;60.034;30.654;2023-04-24T17:25:03;14.50;;;8.23;;
79518;SDS011;68968;60.034;30.654;2023-04-24T17:27:30;15.40;;;8.23;;
79518;SDS011;68968;60.034;30.654;2023-04-24T17:29:57;12.50;;;7.22;;
79518;SDS011;68968;60.034;30.654;2023-04-24T17:32:23;12.85;;;7.40;;
79518;SDS011;68968;60.034;30.654;2023-04-24T17:34:49;12.07;;;7.22;;
79518;SDS011;68968;60.034;30.654;2023-04-24T17:37:15;16.05;;;7.70;;
79518;SDS011;68968;60.034;30.654;2023-04-24T17:39:44;12.63;;;8.20;;
79518;SDS011;68968;60.034;30.654;2023-04-24T17:42:10;11.63;;;6.88;;
79518;SDS011;68968;60.034;30.654;2023-04-24T17:44:36;14.57;;;7.10;;
79518;SDS011;68968;60.034;30.654;2023-04-24T17:47:01;13.00;;;7.07;;
79518;SDS011;68968;60.034;30.654;2023-04-24T17:49:30;17.90;;;9.00;;
79518;SDS011;68968;60.034;30.654;2023-04-24T17:51:57;17.05;;;9.98;;
79518;SDS011;68968;60.034;30.654;2023-04-24T17:54:22;14.15;;;8.55;;
79518;SDS011;68968;60.034;30.654;2023-04-24T17:56:49;15.43;;;9.05;;
79518;SDS011;68968;60.034;30.654;2023-04-24T17:59:17;19.70;;;11.43;;
79518;SDS011;68968;60.034;30.654;2023-04-24T18:01:44;20.27;;;11.48;;
79518;SDS011;68968;60.034;30.654;2023-04-24T18:04:09;19.20;;;11.00;;
79518;SDS011;68968;60.034;30.654;2023-04-24T18:06:38;18.70;;;12.23;;
79518;SDS011;68968;60.034;30.654;2023-04-24T18:09:04;23.83;;;16.48;;
79518;SDS011;68968;60.034;30.654;2023-04-24T18:11:30;24.15;;;13.23;;
79518;SDS011;68968;60.034;30.654;2023-04-24T18:13:57;23.33;;;11.88;;
79518;SDS011;68968;60.034;30.654;2023-04-24T18:16:26;21.13;;;11.70;;
79518;SDS011;68968;60.034;30.654;2023-04-24T18:18:52;17.27;;;11.50;;
79518;SDS011;68968;60.034;30.654;2023-04-24T18:21:18;20.20;;;11.70;;
79518;SDS011;68968;60.034;30.654;2023-04-24T18:23:45;20.02;;;10.90;;
79518;SDS011;68968;60.034;30.654;2023-04-24T18:26:12;19.85;;;10.75;;
79518;SDS011;68968;60.034;30.654;2023-04-24T18:28:41;19.80;;;11.15;;
79518;SDS011;68968;60.034;30.654;2023-04-24T18:31:08;20.33;;;10.10;;
79518;SDS011;68968;60.034;30.654;2023-04-24T18:33:34;15.52;;;9.07;;
79518;SDS011;68968;60.034;30.654;2023-04-24T18:36:00;18.63;;;9.30;;
79518;SDS011;68968;60.034;30.654;2023-04-24T18:38:27;15.43;;;9.25;;
79518;SDS011;68968;60.034;30.654;2023-04-24T18:40:53;18.83;;;9.90;;
79518;SDS011;68968;60.034;30.654;2023-04-24T18:43:20;16.90;;;9.52;;
